Time;durP1;ratioP1;P1;durP2;ratioP2;P2;SDS_P1;SDS_P2;PMS_P1;PMS_P2;Temp;Humidity;BMP_temperature;BMP_pressure;BME280_temperature;BME280_humidity;BME280_pressure;Samples;Min_cycle;Max_cycle;Signal;HPM_P1;HPM_P2
2023/06/24 00:01:05;;;;;;;7.33;6.60;;;;;;;-143.84;75.61;45102.38;5083304;28;20444;-55
2023/06/24 00:03:36;;;;;;;9.80;7.13;;;;;;;-143.84;74.43;45077.63;5083065;28;20851;-55
2023/06/24 00:06:04;;;;;;;8.63;6.93;;;;;;;-143.84;72.53;45089.06;5082301;28;20522;-56
2023/06/24 00:08:34;;;;;;;8.60;6.23;;;;;;;-143.84;71.95;45070.00;5080627;28;20444;-55
2023/06/24 00:11:02;;;;;;;7.17;5.77;;;;;;;-143.84;70.73;45089.06;5083503;28;20464;-56
2023/06/24 00:13:29;;;;;;;7.40;5.60;;;;;;;-143.84;70.12;45100.47;5083780;28;20455;-55
2023/06/24 00:15:56;;;;;;;14.03;6.60;;;;;;;-143.84;69.86;45098.56;5084094;28;20457;-55
2023/06/24 00:18:29;;;;;;;6.60;6.00;;;;;;;-143.84;70.38;45073.81;5081925;28;20884;-55
2023/06/24 00:20:56;;;;;;;14.13;6.67;;;;;;;-143.84;70.29;45094.78;5083495;28;20435;-55
2023/06/24 00:23:25;;;;;;;5.83;5.40;;;;;;;-143.84;69.26;45089.06;5082915;28;20571;-55
2023/06/24 00:25:54;;;;;;;6.37;5.93;;;;;;;-143.84;69.44;45068.13;5082169;28;20441;-55
2023/06/24 00:28:21;;;;;;;7.77;6.97;;;;;;;-143.84;69.31;45092.88;5080215;28;20453;-55
2023/06/24 00:30:49;;;;;;;6.43;5.83;;;;;;;-143.84;70.77;45092.88;5082144;28;20440;-55
2023/06/24 00:33:19;;;;;;;7.87;6.27;;;;;;;-143.84;70.40;45075.72;5082311;28;20502;-55
2023/06/24 00:35:47;;;;;;;13.50;7.60;;;;;;;-143.84;72.01;45096.66;5082050;28;20449;-55
2023/06/24 00:38:14;;;;;;;8.63;7.30;;;;;;;-143.84;73.12;45083.34;5080991;28;20463;-55
2023/06/24 00:40:41;;;;;;;8.37;6.80;;;;;;;-143.84;73.42;45098.56;5083286;28;20827;-55
2023/06/24 00:43:10;;;;;;;7.80;6.80;;;;;;;-143.84;72.62;45073.81;5083259;28;20441;-55
2023/06/24 00:45:38;;;;;;;9.17;6.73;;;;;;;-143.84;71.68;45094.78;5083073;28;20449;-55
2023/06/24 00:48:06;;;;;;;7.17;6.47;;;;;;;-143.84;70.33;45058.59;5080411;28;20456;-55
2023/06/24 00:50:35;;;;;;;10.93;6.80;;;;;;;-143.84;69.68;45092.88;5083027;28;20448;-55
2023/06/24 00:53:02;;;;;;;7.47;5.77;;;;;;;-143.84;66.35;45071.91;5082893;28;20459;-55
2023/06/24 00:55:30;;;;;;;6.80;5.90;;;;;;;-143.84;65.95;45087.16;5082462;28;20449;-55
2023/06/24 00:57:59;;;;;;;12.13;5.50;;;;;;;-143.84;65.03;45089.06;5078793;28;20454;-55
2023/06/24 01:00:27;;;;;;;7.70;5.47;;;;;;;-143.84;63.75;45090.97;5081881;28;20457;-55
2023/06/24 01:02:55;;;;;;;6.63;5.97;;;;;;;-143.84;62.70;45079.53;5082675;28;20494;-55
2023/06/24 01:05:23;;;;;;;11.43;6.20;;;;;;;-143.84;62.30;45108.09;5082389;28;20480;-55
2023/06/24 01:07:55;;;;;;;5.87;4.90;;;;;;;-143.84;62.29;45075.72;5079793;28;20436;-55
2023/06/24 01:10:23;;;;;;;8.13;6.10;;;;;;;-143.84;62.20;45077.63;5082617;28;20459;-56
2023/06/24 01:12:50;;;;;;;6.60;5.77;;;;;;;-143.84;63.01;45087.16;5081272;28;20457;-55
2023/06/24 01:15:19;;;;;;;7.00;6.30;;;;;;;-143.84;62.94;45083.34;5081421;28;20459;-55
2023/06/24 01:17:56;;;;;;;12.20;6.10;;;;;;;-143.84;63.30;45070.00;5079999;28;20467;-55
2023/06/24 01:20:28;;;;;;;8.77;5.83;;;;;;;-143.84;62.83;45077.63;5081194;28;20984;-55
2023/06/24 01:23:26;;;;;;;7.50;5.97;;;;;;;-143.84;63.69;45092.88;5081861;28;20532;-55
2023/06/24 01:26:35;;;;;;;7.90;5.60;;;;;;;-143.84;63.99;45070.00;5081547;28;20505;-55
2023/06/24 01:29:35;;;;;;;8.00;6.33;;;;;;;-143.84;64.64;45071.91;5059198;28;20453;-55
2023/06/24 01:32:08;;;;;;;7.67;6.37;;;;;;;-143.84;64.26;45092.88;5082090;28;20501;-55
2023/06/24 01:34:42;;;;;;;7.40;6.27;;;;;;;-143.84;65.62;45096.66;5083033;28;20493;-55
2023/06/24 01:37:15;;;;;;;8.53;6.07;;;;;;;-143.84;66.60;45079.53;5080030;28;20527;-55
2023/06/24 01:39:48;;;;;;;8.70;6.77;;;;;;;-143.84;67.75;45092.88;5082364;28;20468;-55
2023/06/24 01:42:18;;;;;;;7.40;6.80;;;;;;;-143.84;68.50;45079.53;5082390;28;20425;-55
2023/06/24 01:44:48;;;;;;;7.10;6.50;;;;;;;-143.84;68.71;45073.81;5082673;28;21015;-55
2023/06/24 01:47:21;;;;;;;9.83;6.47;;;;;;;-143.84;68.70;45073.81;5079274;28;20441;-55
2023/06/24 01:49:50;;;;;;;10.67;6.97;;;;;;;-143.84;68.33;45102.38;5082175;28;20461;-55
2023/06/24 01:52:19;;;;;;;8.43;5.67;;;;;;;-143.84;68.32;45085.25;5079306;28;20445;-55
2023/06/24 01:54:49;;;;;;;11.33;7.17;;;;;;;-143.84;67.58;45083.34;5081894;28;20900;-55
2023/06/24 01:57:18;;;;;;;7.13;6.10;;;;;;;-143.84;66.74;45081.44;5078581;28;20482;-55
2023/06/24 01:59:47;;;;;;;8.93;7.53;;;;;;;-143.84;66.50;45064.31;5081987;28;20452;-55
2023/06/24 02:02:19;;;;;;;10.50;6.00;;;;;;;-143.84;66.66;45094.78;5082422;28;20440;-55
2023/06/24 02:04:47;;;;;;;10.53;6.60;;;;;;;-143.84;67.16;45071.91;5083926;28;20537;-55
2023/06/24 02:07:16;;;;;;;9.47;7.90;;;;;;;-143.84;67.46;45066.22;5088376;28;20452;-55
2023/06/24 02:09:45;;;;;;;7.77;7.07;;;;;;;-143.84;68.02;45083.34;5088701;28;20446;-55
2023/06/24 02:12:13;;;;;;;7.63;6.83;;;;;;;-143.84;69.11;45087.16;5088350;28;20522;-55
2023/06/24 02:14:41;;;;;;;14.30;7.33;;;;;;;-143.84;70.23;45087.16;5088350;28;20436;-55
2023/06/24 02:17:12;;;;;;;9.47;7.53;;;;;;;-143.84;71.40;45075.72;5088665;28;20573;-55
2023/06/24 02:19:40;;;;;;;8.63;7.20;;;;;;;-143.84;72.00;45085.25;5088150;28;20472;-55
2023/06/24 02:22:09;;;;;;;7.80;7.00;;;;;;;-143.84;72.13;45089.06;5088209;28;20454;-55
2023/06/24 02:24:38;;;;;;;9.63;7.20;;;;;;;-143.84;72.87;45106.19;5087765;28;21008;-56
2023/06/24 02:27:08;;;;;;;13.03;7.23;;;;;;;-143.84;73.31;45108.09;5089539;28;20436;-55
2023/06/24 02:29:38;;;;;;;12.83;7.77;;;;;;;-143.84;73.68;45077.63;5091450;28;20444;-55
2023/06/24 02:32:06;;;;;;;8.43;7.70;;;;;;;-143.84;74.30;45077.63;5092010;28;20488;-55
2023/06/24 02:34:33;;;;;;;13.50;8.50;;;;;;;-143.84;74.94;45083.34;5092351;28;20491;-55
2023/06/24 02:37:02;;;;;;;9.50;8.60;;;;;;;-143.84;75.35;45073.81;5092037;28;21321;-54
2023/06/24 02:39:29;;;;;;;14.60;8.03;;;;;;;-143.84;76.08;45079.53;5091693;28;20444;-55
2023/06/24 02:41:56;;;;;;;9.60;8.60;;;;;;;-143.84;76.32;45098.56;5091901;28;20489;-55
2023/06/24 02:44:23;;;;;;;9.50;8.50;;;;;;;-143.84;77.18;45117.63;5091829;28;20476;-55
2023/06/24 02:46:52;;;;;;;10.90;7.47;;;;;;;-143.84;77.62;45100.47;5091255;28;20457;-54
2023/06/24 02:49:21;;;;;;;9.33;7.97;;;;;;;-143.84;78.39;45064.31;5091737;28;20938;-55
2023/06/24 02:51:50;;;;;;;9.70;8.70;;;;;;;-143.84;80.49;45083.34;5091580;28;20903;-55
2023/06/24 02:54:19;;;;;;;10.53;8.53;;;;;;;-143.84;81.81;45085.25;5091129;28;20820;-55
2023/06/24 02:56:48;;;;;;;10.13;8.47;;;;;;;-143.84;83.40;45087.16;5091408;28;21031;-55
2023/06/24 02:59:15;;;;;;;13.37;9.27;;;;;;;-143.84;84.38;45092.88;5090570;28;20436;-57
2023/06/24 03:01:45;;;;;;;12.20;8.83;;;;;;;-143.84;85.14;45068.13;5091147;28;21331;-57
2023/06/24 03:04:13;;;;;;;10.13;9.00;;;;;;;-143.84;86.30;45062.41;5090937;28;20480;-57
2023/06/24 03:06:41;;;;;;;9.70;8.80;;;;;;;-143.84;86.32;45045.25;5090048;28;20436;-57
2023/06/24 03:09:08;;;;;;;14.93;8.60;;;;;;;-143.84;85.84;45056.69;5089481;28;20795;-57
2023/06/24 03:11:43;;;;;;;16.10;8.23;;;;;;;-143.84;84.62;45083.34;5090579;28;20505;-57
2023/06/24 03:14:10;;;;;;;12.83;8.70;;;;;;;-143.84;83.60;45094.78;5090324;28;20456;-57
2023/06/24 03:16:38;;;;;;;9.20;7.67;;;;;;;-143.84;83.19;45083.34;5090653;28;20950;-57
2023/06/24 03:19:06;;;;;;;9.23;8.00;;;;;;;-143.84;83.07;45056.69;5090475;28;20523;-57
2023/06/24 03:21:34;;;;;;;13.40;7.80;;;;;;;-143.84;81.07;45123.34;5090594;28;20456;-57
2023/06/24 03:24:01;;;;;;;8.57;7.80;;;;;;;-143.84;78.55;45102.38;5090481;28;20510;-57
2023/06/24 03:26:34;;;;;;;8.73;6.90;;;;;;;-143.84;77.91;45090.97;5090476;28;20444;-57
2023/06/24 03:29:03;;;;;;;6.93;6.20;;;;;;;-143.84;74.23;45064.31;5087354;28;20473;-57
2023/06/24 03:31:30;;;;;;;8.90;6.20;;;;;;;-143.84;72.73;45094.78;5090268;28;20452;-57
2023/06/24 03:33:57;;;;;;;7.27;6.60;;;;;;;-143.84;70.86;45090.97;5089409;28;20510;-57
2023/06/24 03:36:25;;;;;;;6.60;5.63;;;;;;;-143.84;68.48;45081.44;5089449;28;20445;-57
2023/06/24 03:38:52;;;;;;;7.53;6.10;;;;;;;-143.84;63.14;45071.91;5089827;28;20528;-58
2023/06/24 03:41:19;;;;;;;10.80;6.27;;;;;;;-143.84;56.38;45033.84;5090293;28;20448;-57
2023/06/24 03:43:47;;;;;;;8.27;6.20;;;;;;;-143.84;50.52;45031.94;5090094;28;20463;-58
2023/06/24 03:46:16;;;;;;;9.10;6.03;;;;;;;-143.84;48.85;45010.97;5089839;28;20544;-58
2023/06/24 03:48:44;;;;;;;8.37;5.00;;;;;;;-143.84;47.29;45022.41;5089729;28;21156;-58
2023/06/24 03:51:11;;;;;;;10.47;6.60;;;;;;;-143.84;45.24;45010.97;5090195;28;20444;-58
2023/06/24 03:53:38;;;;;;;6.10;5.60;;;;;;;-143.84;44.22;45020.50;5090051;28;20447;-58
2023/06/24 03:56:06;;;;;;;8.27;5.70;;;;;;;-143.84;43.96;45005.28;5086037;28;20494;-58
2023/06/24 03:58:33;;;;;;;11.13;5.90;;;;;;;-143.84;43.39;44990.03;5090707;28;20449;-58
2023/06/24 04:01:01;;;;;;;9.03;5.67;;;;;;;-143.84;42.83;45003.38;5090404;28;20453;-58
2023/06/24 04:03:31;;;;;;;14.43;5.80;;;;;;;-143.84;42.28;44982.41;5089872;28;20456;-58
2023/06/24 04:05:58;;;;;;;11.83;5.80;;;;;;;-143.84;42.29;44990.03;5087660;28;20996;-58
2023/06/24 04:08:29;;;;;;;6.37;5.50;;;;;;;-143.84;41.76;44969.09;5089293;28;20451;-55
2023/06/24 04:10:56;;;;;;;15.30;6.07;;;;;;;-143.84;41.26;44999.56;5089940;28;20575;-55
2023/06/24 04:13:23;;;;;;;10.30;5.23;;;;;;;-143.84;41.20;44969.09;5089730;28;20444;-57
2023/06/24 04:15:50;;;;;;;8.70;5.57;;;;;;;-143.84;41.00;44984.31;5089455;28;20448;-58
2023/06/24 04:18:18;;;;;;;5.60;5.00;;;;;;;-143.84;40.68;44957.66;5076745;28;20457;-57
2023/06/24 04:20:46;;;;;;;5.87;5.40;;;;;;;-143.84;40.65;44965.28;5069101;28;20480;-58
2023/06/24 04:23:14;;;;;;;8.53;4.50;;;;;;;-143.84;40.97;44932.91;5069566;28;20511;-58
2023/06/24 04:25:42;;;;;;;5.73;5.23;;;;;;;-143.84;40.92;44959.56;5069545;28;20487;-58
2023/06/24 04:28:09;;;;;;;5.50;5.00;;;;;;;-143.84;40.43;44963.38;5069441;28;20481;-58
2023/06/24 04:30:38;;;;;;;4.50;4.10;;;;;;;-143.84;40.00;44969.09;5069562;28;20499;-58
2023/06/24 04:33:05;;;;;;;10.23;5.47;;;;;;;-143.84;40.65;44976.72;5087285;28;20980;-58
2023/06/24 04:35:32;;;;;;;6.27;5.67;;;;;;;-143.84;40.24;44953.88;5089040;28;20448;-58
2023/06/24 04:38:01;;;;;;;9.53;5.50;;;;;;;-143.84;40.54;44940.53;5089275;28;20435;-58
2023/06/24 04:40:28;;;;;;;9.70;5.57;;;;;;;-143.84;39.63;44974.81;5089468;28;20448;-58
2023/06/24 04:42:55;;;;;;;5.20;4.70;;;;;;;-143.84;39.86;44972.91;5089379;28;20478;-58
2023/06/24 04:45:22;;;;;;;6.80;4.77;;;;;;;-143.84;40.48;44959.56;5089648;28;20481;-58
2023/06/24 04:47:50;;;;;;;7.57;5.67;;;;;;;-143.84;40.99;44934.81;5089583;28;20441;-58
2023/06/24 04:50:17;;;;;;;5.50;5.10;;;;;;;-143.84;41.18;44942.44;5088817;28;20508;-57
2023/06/24 04:52:44;;;;;;;9.87;5.67;;;;;;;-143.84;41.25;44972.91;5089212;28;20505;-58
2023/06/24 04:55:13;;;;;;;5.67;4.73;;;;;;;-143.84;41.27;44972.91;5088757;28;20533;-57
2023/06/24 04:57:42;;;;;;;5.10;4.63;;;;;;;-143.84;41.25;44959.56;5088442;28;20785;-57
2023/06/24 05:00:10;;;;;;;5.13;4.73;;;;;;;-143.84;42.20;44951.97;5088498;28;20445;-58
2023/06/24 05:02:37;;;;;;;9.90;5.33;;;;;;;-143.84;42.14;44951.97;5088580;28;20433;-58
2023/06/24 05:05:04;;;;;;;5.43;5.03;;;;;;;-143.84;42.82;44944.34;5088436;28;20484;-57
2023/06/24 05:07:31;;;;;;;6.77;5.43;;;;;;;-143.84;43.24;44932.91;5088390;28;20482;-57
2023/06/24 05:09:58;;;;;;;8.70;5.10;;;;;;;-143.84;43.73;44971.00;5088870;28;20436;-57
2023/06/24 05:12:27;;;;;;;6.43;5.10;;;;;;;-143.84;44.22;44984.31;5088402;28;20436;-58
2023/06/24 05:14:54;;;;;;;12.37;5.63;;;;;;;-143.84;45.78;44953.88;5088231;28;20514;-57
2023/06/24 05:17:21;;;;;;;6.37;5.60;;;;;;;-143.84;44.49;44957.66;5088931;28;20831;-57
2023/06/24 05:19:49;;;;;;;5.43;4.97;;;;;;;-143.84;44.61;44963.38;5088801;28;20549;-58
2023/06/24 05:22:16;;;;;;;5.50;5.00;;;;;;;-143.84;43.50;44957.66;5088702;28;20444;-58
2023/06/24 05:24:43;;;;;;;7.37;5.30;;;;;;;-143.84;43.93;44946.25;5088926;28;20525;-57
2023/06/24 05:27:10;;;;;;;4.50;4.20;;;;;;;-143.84;42.68;44969.09;5088945;28;20894;-59
2023/06/24 05:29:39;;;;;;;6.37;5.77;;;;;;;-143.84;44.85;44950.06;5089010;28;21016;-58
2023/06/24 05:32:07;;;;;;;5.77;5.27;;;;;;;-143.84;44.14;44965.28;5088661;28;21001;-57
2023/06/24 05:34:34;;;;;;;5.93;4.90;;;;;;;-143.84;42.98;44942.44;5088604;28;20441;-57
2023/06/24 05:37:02;;;;;;;9.23;5.40;;;;;;;-143.84;43.90;44948.16;5088980;28;20451;-57
2023/06/24 05:39:29;;;;;;;6.23;5.00;;;;;;;-143.84;42.75;44963.38;5088843;28;20864;-57
2023/06/24 05:41:56;;;;;;;7.17;4.67;;;;;;;-143.84;41.65;44974.81;5088479;28;20985;-57
2023/06/24 05:44:23;;;;;;;11.03;5.80;;;;;;;-143.84;41.78;44936.72;5088194;28;20437;-57
2023/06/24 05:46:52;;;;;;;8.67;5.67;;;;;;;-143.84;42.38;44934.81;5088288;28;20562;-58
2023/06/24 05:49:19;;;;;;;5.60;5.00;;;;;;;-143.84;43.17;44951.97;5088529;28;20456;-58
2023/06/24 05:51:46;;;;;;;17.37;4.70;;;;;;;-143.84;43.59;44980.53;5088371;28;20963;-57
2023/06/24 05:54:13;;;;;;;6.10;4.53;;;;;;;-143.84;42.44;44944.34;5088851;28;20988;-57
2023/06/24 05:56:40;;;;;;;16.13;5.13;;;;;;;-143.84;43.61;44963.38;5088584;28;20946;-57
2023/06/24 05:59:08;;;;;;;6.50;5.13;;;;;;;-143.84;42.59;44940.53;5088704;28;20513;-58
2023/06/24 06:01:35;;;;;;;6.60;6.00;;;;;;;-143.84;43.26;44944.34;5089606;28;20478;-57
2023/06/24 06:04:04;;;;;;;9.27;5.87;;;;;;;-143.84;42.99;44946.25;5092604;28;21333;-57
2023/06/24 06:06:31;;;;;;;8.90;4.80;;;;;;;-143.84;44.54;44955.75;5092580;28;20873;-57
2023/06/24 06:08:58;;;;;;;5.97;5.37;;;;;;;-143.84;44.80;44950.06;5092226;28;20445;-57
2023/06/24 06:11:25;;;;;;;5.60;5.03;;;;;;;-143.84;43.69;44946.25;5092339;28;20455;-57
2023/06/24 06:13:53;;;;;;;12.00;5.60;;;;;;;-143.84;43.10;44955.75;5092472;28;20432;-58
2023/06/24 06:16:20;;;;;;;7.10;5.40;;;;;;;-143.84;43.87;44931.00;5092134;28;20548;-57
2023/06/24 06:18:47;;;;;;;6.17;4.97;;;;;;;-143.84;42.04;44944.34;5092267;28;20499;-57
2023/06/24 06:21:16;;;;;;;6.20;5.40;;;;;;;-143.84;42.47;44919.59;5091419;28;20459;-58
2023/06/24 06:23:43;;;;;;;5.57;5.07;;;;;;;-143.84;40.27;44915.78;5091568;28;20958;-58
2023/06/24 06:26:10;;;;;;;5.60;5.10;;;;;;;-143.84;41.49;44940.53;5091333;28;20486;-58
2023/06/24 06:28:38;;;;;;;5.60;5.10;;;;;;;-143.84;42.04;44891.03;5092046;28;20869;-57
2023/06/24 06:31:05;;;;;;;5.40;4.70;;;;;;;-143.84;38.05;44932.91;5092300;28;20441;-57
2023/06/24 06:33:32;;;;;;;6.73;5.30;;;;;;;-143.84;41.44;44927.19;5092190;28;20440;-57
2023/06/24 06:35:59;;;;;;;6.20;4.40;;;;;;;-143.84;40.69;44919.59;5091746;28;20929;-58
2023/06/24 06:38:28;;;;;;;5.80;5.20;;;;;;;-143.84;41.53;44917.69;5092067;28;20437;-57
2023/06/24 06:40:55;;;;;;;6.03;5.43;;;;;;;-143.84;42.34;44908.16;5091758;28;20448;-58
2023/06/24 06:43:22;;;;;;;5.40;4.90;;;;;;;-143.84;39.00;44898.66;5091955;28;20445;-58
2023/06/24 06:45:49;;;;;;;5.50;5.00;;;;;;;-143.84;40.06;44915.78;5091474;28;20545;-57
2023/06/24 06:48:17;;;;;;;5.30;4.80;;;;;;;-143.84;39.23;44925.31;5091935;28;20447;-58
2023/06/24 06:50:45;;;;;;;8.10;5.13;;;;;;;-143.84;39.17;44929.09;5091565;28;20692;-57
2023/06/24 06:53:12;;;;;;;7.40;5.07;;;;;;;-143.84;39.09;44929.09;5091636;28;20452;-57
2023/06/24 06:55:42;;;;;;;14.83;5.43;;;;;;;-143.84;38.01;44953.88;5091791;28;20452;-57
2023/06/24 06:58:09;;;;;;;6.43;4.70;;;;;;;-143.84;39.38;44919.59;5091722;28;20444;-57
2023/06/24 07:00:37;;;;;;;5.87;5.03;;;;;;;-143.84;42.25;44953.88;5091355;28;20992;-58
2023/06/24 07:03:04;;;;;;;7.90;5.40;;;;;;;-143.84;43.32;44931.00;5091183;28;20441;-58
2023/06/24 07:05:31;;;;;;;7.07;5.27;;;;;;;-143.84;40.00;44976.72;5090700;28;20480;-58
2023/06/24 07:07:58;;;;;;;4.90;4.37;;;;;;;-143.84;38.00;44936.72;5090632;28;20828;-58
2023/06/24 07:10:25;;;;;;;7.67;5.03;;;;;;;-143.84;40.94;44948.16;5090695;28;20453;-58
2023/06/24 07:12:57;;;;;;;5.20;4.70;;;;;;;-143.84;38.56;44921.50;5089998;28;20453;-58
2023/06/24 07:15:26;;;;;;;5.53;5.03;;;;;;;-143.84;38.55;44910.06;5090529;28;20556;-58
2023/06/24 07:17:53;;;;;;;7.03;5.40;;;;;;;-143.84;41.12;44908.16;5090815;28;20433;-58
2023/06/24 07:20:21;;;;;;;5.23;4.83;;;;;;;-143.84;39.64;44913.88;5090650;28;20508;-58
2023/06/24 07:22:48;;;;;;;6.80;4.57;;;;;;;-143.84;36.48;44917.69;5090376;28;20461;-58
2023/06/24 07:25:15;;;;;;;4.77;4.37;;;;;;;-143.84;37.40;44950.06;5090330;28;20451;-58
2023/06/24 07:27:43;;;;;;;5.00;4.60;;;;;;;-143.84;37.18;44923.41;5090504;28;20448;-57
2023/06/24 07:30:12;;;;;;;11.17;5.30;;;;;;;-143.84;40.32;44931.00;5090207;28;20448;-58
2023/06/24 07:32:39;;;;;;;6.90;5.27;;;;;;;-143.84;39.28;44925.31;5090305;28;21033;-58
2023/06/24 07:35:07;;;;;;;5.50;5.10;;;;;;;-143.84;39.24;44919.59;5090463;28;20452;-58
2023/06/24 07:37:35;;;;;;;5.43;4.93;;;;;;;-143.84;41.77;44894.84;5090234;28;20517;-58
2023/06/24 07:40:05;;;;;;;6.20;4.83;;;;;;;-143.84;39.58;44904.34;5090613;28;20444;-58
2023/06/24 07:42:32;;;;;;;9.07;7.17;;;;;;;-143.84;38.67;44917.69;5090196;28;20445;-57
2023/06/24 07:44:59;;;;;;;5.60;5.10;;;;;;;-143.84;39.58;44931.00;5089875;28;20444;-57
2023/06/24 07:47:27;;;;;;;8.87;4.90;;;;;;;-143.84;40.23;44913.88;5089319;28;20997;-57
2023/06/24 07:49:55;;;;;;;6.67;5.47;;;;;;;-143.84;40.43;44902.44;5090018;28;20452;-58
2023/06/24 07:52:22;;;;;;;5.50;5.10;;;;;;;-143.84;43.50;44925.31;5089781;28;20444;-58
2023/06/24 07:54:49;;;;;;;7.10;5.13;;;;;;;-143.84;41.29;44940.53;5090193;28;21347;-58
2023/06/24 07:57:16;;;;;;;6.00;5.50;;;;;;;-143.84;41.49;44953.88;5090292;28;20437;-57
2023/06/24 07:59:44;;;;;;;5.40;4.90;;;;;;;-143.84;39.23;44908.16;5089933;28;20440;-57
2023/06/24 08:02:11;;;;;;;10.53;5.40;;;;;;;-143.84;41.63;44944.34;5089686;28;20445;-58
2023/06/24 08:04:39;;;;;;;6.13;5.37;;;;;;;-143.84;43.01;44921.50;5089703;28;20444;-57
2023/06/24 08:07:07;;;;;;;5.27;4.87;;;;;;;-143.84;41.13;44921.50;5090038;28;20483;-57
2023/06/24 08:09:34;;;;;;;9.63;4.93;;;;;;;-143.84;41.04;44934.81;5089897;28;20445;-58
2023/06/24 08:12:01;;;;;;;9.27;4.63;;;;;;;-143.84;39.92;44929.09;5089797;28;20460;-57
2023/06/24 08:14:28;;;;;;;16.00;5.50;;;;;;;-143.84;43.12;44932.91;5090057;28;20957;-57
2023/06/24 08:16:55;;;;;;;7.00;5.40;;;;;;;-143.84;42.45;44923.41;5090447;28;20453;-57
2023/06/24 08:19:22;;;;;;;6.03;5.20;;;;;;;-143.84;42.65;44953.88;5086308;28;21024;-57
2023/06/24 08:21:51;;;;;;;6.60;5.50;;;;;;;-143.84;42.75;44940.53;5087352;28;20444;-57
2023/06/24 08:24:18;;;;;;;5.73;5.30;;;;;;;-143.84;45.86;44959.56;5089502;28;20444;-57
2023/06/24 08:26:45;;;;;;;7.13;4.60;;;;;;;-143.84;41.23;44917.69;5089997;28;21119;-57
2023/06/24 08:29:12;;;;;;;6.37;4.97;;;;;;;-143.84;43.28;44915.78;5090011;28;20429;-57
2023/06/24 08:31:39;;;;;;;8.53;5.73;;;;;;;-143.84;42.17;44965.28;5089829;28;20447;-57
2023/06/24 08:34:07;;;;;;;6.63;5.07;;;;;;;-143.84;41.37;44921.50;5090012;28;20880;-57
2023/06/24 08:36:34;;;;;;;5.53;5.03;;;;;;;-143.84;43.96;44919.59;5089711;28;20527;-57
2023/06/24 08:39:02;;;;;;;15.37;5.07;;;;;;;-143.84;40.34;44896.75;5089897;28;20468;-57
2023/06/24 08:41:30;;;;;;;8.90;5.50;;;;;;;-143.84;42.19;44953.88;5089685;28;20444;-57
2023/06/24 08:43:57;;;;;;;10.43;6.30;;;;;;;-143.84;41.12;44959.56;5089568;28;20470;-57
2023/06/24 08:46:26;;;;;;;6.97;5.83;;;;;;;-143.84;40.09;44974.81;5089385;28;20541;-57
2023/06/24 08:48:59;;;;;;;6.93;5.90;;;;;;;-143.84;41.37;44919.59;5089693;28;21005;-54
2023/06/24 08:51:30;;;;;;;5.23;4.70;;;;;;;-143.84;40.23;44942.44;5089564;28;20938;-55
2023/06/24 08:53:59;;;;;;;4.93;4.60;;;;;;;-143.84;37.58;44951.97;5089758;28;20447;-55
2023/06/24 08:56:28;;;;;;;5.53;5.03;;;;;;;-143.84;37.99;44936.72;5089243;28;20443;-57
2023/06/24 08:58:56;;;;;;;9.03;4.70;;;;;;;-143.84;40.21;44965.28;5089244;28;20448;-57
2023/06/24 09:01:23;;;;;;;4.37;4.00;;;;;;;-143.84;37.37;44957.66;5089085;28;20435;-57
2023/06/24 09:03:50;;;;;;;10.27;4.33;;;;;;;-143.84;38.58;44951.97;5089378;28;20458;-57
2023/06/24 09:06:17;;;;;;;9.23;5.83;;;;;;;-143.84;42.03;44936.72;5089002;28;20494;-57
2023/06/24 09:08:54;;;;;;;8.00;5.03;;;;;;;-143.84;40.50;44932.91;5088903;28;20879;-58
2023/06/24 09:11:24;;;;;;;11.57;4.50;;;;;;;-143.84;35.96;44942.44;5088836;28;20476;-58
2023/06/24 09:13:57;;;;;;;5.07;4.57;;;;;;;-143.84;40.39;44923.41;5089089;28;20531;-58
2023/06/24 09:16:25;;;;;;;14.93;4.00;;;;;;;-143.84;37.22;44932.91;5089110;28;20481;-58
2023/06/24 09:18:53;;;;;;;5.23;4.80;;;;;;;-143.84;38.83;44906.25;5087829;28;20479;-57
2023/06/24 09:21:25;;;;;;;11.87;5.00;;;;;;;-143.84;40.23;44915.78;5079679;28;21830;-57
2023/06/24 09:23:54;;;;;;;6.50;5.13;;;;;;;-143.84;38.27;44932.91;5083482;28;20448;-58
2023/06/24 09:26:21;;;;;;;6.93;5.27;;;;;;;-143.84;38.89;44919.59;5083028;28;20564;-58
2023/06/24 09:28:50;;;;;;;7.20;5.10;;;;;;;-143.84;38.92;44953.88;5082685;28;20452;-58
2023/06/24 09:31:19;;;;;;;4.67;4.30;;;;;;;-143.84;37.86;44959.56;5080646;28;21206;-57
2023/06/24 09:33:46;;;;;;;10.10;4.20;;;;;;;-143.84;37.07;44974.81;5082350;28;20535;-58
2023/06/24 09:36:14;;;;;;;5.20;4.80;;;;;;;-143.84;40.48;44942.44;5085086;28;21676;-58
2023/06/24 09:38:44;;;;;;;7.87;4.57;;;;;;;-143.84;39.97;44921.50;5086458;28;20543;-58
2023/06/24 09:41:12;;;;;;;4.20;3.80;;;;;;;-143.84;36.48;44932.91;5083917;28;20621;-58
2023/06/24 09:43:40;;;;;;;9.53;4.07;;;;;;;-143.84;39.19;44944.34;5085148;28;20449;-58
2023/06/24 09:46:08;;;;;;;5.00;4.60;;;;;;;-143.84;40.59;44959.56;5084873;28;20443;-58
2023/06/24 09:48:37;;;;;;;8.23;5.30;;;;;;;-143.84;41.90;44950.06;5086394;28;20559;-57
2023/06/24 09:51:05;;;;;;;5.60;4.70;;;;;;;-143.84;42.53;44963.38;5085279;28;20456;-58
2023/06/24 09:53:33;;;;;;;14.30;4.83;;;;;;;-143.84;40.98;44938.63;5085924;28;20447;-57
2023/06/24 09:56:02;;;;;;;5.87;5.37;;;;;;;-143.84;43.30;44950.06;5086201;28;20450;-57
2023/06/24 09:58:33;;;;;;;5.70;5.20;;;;;;;-143.84;43.79;44971.00;5084669;28;20456;-57
2023/06/24 10:01:03;;;;;;;7.30;4.70;;;;;;;-143.84;41.42;44953.88;5082810;28;20440;-57
2023/06/24 10:03:32;;;;;;;5.40;4.90;;;;;;;-143.84;45.00;44999.56;5084943;28;21258;-58
2023/06/24 10:06:02;;;;;;;4.97;4.50;;;;;;;-143.84;46.96;44955.75;5084273;28;20504;-57
2023/06/24 10:08:32;;;;;;;5.90;5.30;;;;;;;-143.84;46.88;44963.38;5085110;28;20448;-58
2023/06/24 10:10:59;;;;;;;5.10;4.60;;;;;;;-143.84;46.48;44950.06;5085609;28;20444;-57
2023/06/24 10:13:27;;;;;;;5.27;4.77;;;;;;;-143.84;49.94;44931.00;5088413;28;20443;-58
2023/06/24 10:15:55;;;;;;;6.13;5.07;;;;;;;-143.84;50.14;44957.66;5086352;28;20455;-58
2023/06/24 10:18:36;;;;;;;15.17;5.50;;;;;;;-143.84;48.64;44944.34;5086017;28;20451;-57
2023/06/24 10:21:05;;;;;;;9.37;5.53;;;;;;;-143.84;48.36;44950.06;5084889;28;20592;-58
2023/06/24 10:23:35;;;;;;;6.30;4.40;;;;;;;-143.84;47.55;44961.47;5085099;28;20461;-57
2023/06/24 10:26:02;;;;;;;9.20;5.87;;;;;;;-143.84;49.31;44938.63;5085272;28;20950;-57
2023/06/24 10:29:14;;;;;;;10.03;5.73;;;;;;;-143.84;50.79;44988.13;5087373;28;20494;-57
2023/06/24 10:31:56;;;;;;;5.40;4.90;;;;;;;-143.84;49.99;44980.53;5092185;28;20546;-57
2023/06/24 10:34:41;;;;;;;9.93;4.77;;;;;;;-143.84;47.66;44976.72;5092369;28;20440;-57
2023/06/24 10:37:15;;;;;;;9.70;4.90;;;;;;;-143.84;50.66;44986.22;5091477;28;20457;-57
2023/06/24 10:39:48;;;;;;;6.07;5.47;;;;;;;-143.84;52.48;45009.09;5092186;28;20466;-57
2023/06/24 10:42:37;;;;;;;6.63;5.17;;;;;;;-143.84;52.57;44978.63;5091915;28;20501;-57
2023/06/24 10:45:15;;;;;;;6.37;4.90;;;;;;;-143.84;53.35;44957.66;5091724;28;20485;-57
2023/06/24 10:47:44;;;;;;;8.40;5.50;;;;;;;-143.84;54.29;44980.53;5090739;28;21081;-57
2023/06/24 10:50:13;;;;;;;6.47;5.40;;;;;;;-143.84;56.42;44961.47;5091530;28;20504;-57
2023/06/24 10:52:43;;;;;;;7.43;4.97;;;;;;;-143.84;55.66;44993.84;5091550;28;20440;-57
2023/06/24 10:55:10;;;;;;;7.70;5.43;;;;;;;-143.84;57.38;44972.91;5091116;28;20508;-57
2023/06/24 10:57:38;;;;;;;8.00;5.23;;;;;;;-143.84;58.66;44963.38;5090510;28;20483;-57
2023/06/24 11:00:06;;;;;;;5.90;5.40;;;;;;;-143.84;59.80;44974.81;5091026;28;20451;-57
2023/06/24 11:02:33;;;;;;;6.80;4.93;;;;;;;-143.84;61.61;44967.19;5090660;28;20469;-57
2023/06/24 11:05:01;;;;;;;7.63;5.70;;;;;;;-143.84;60.75;44974.81;5090514;28;20439;-57
2023/06/24 11:07:30;;;;;;;6.43;5.40;;;;;;;-143.84;56.48;44951.97;5090889;28;20507;-57
2023/06/24 11:10:02;;;;;;;7.00;5.40;;;;;;;-143.84;60.78;44990.03;5088380;28;20516;-57
2023/06/24 11:12:32;;;;;;;6.87;5.47;;;;;;;-143.84;63.42;44969.09;5086901;28;20980;-57
2023/06/24 11:15:00;;;;;;;7.23;5.40;;;;;;;-143.84;63.51;44972.91;5086892;28;20436;-57
2023/06/24 11:17:29;;;;;;;5.67;5.00;;;;;;;-143.84;62.88;44976.72;5090833;28;20456;-57
2023/06/24 11:19:56;;;;;;;6.80;6.10;;;;;;;-143.84;62.03;44982.41;5090240;28;20488;-57
2023/06/24 11:22:24;;;;;;;7.43;6.10;;;;;;;-143.84;62.64;44988.13;5089608;28;20490;-57
2023/06/24 11:24:52;;;;;;;7.00;5.00;;;;;;;-143.84;61.17;44972.91;5090623;28;20448;-57